sensor_id;sensor_type;location;lat;lon;timestamp;P1;durP1;ratioP1;P2;durP2;ratioP2
66487;SDS011;53304;54.550;18.526;2023-04-03T00:00:07;1.80;;;0.70;;
66487;SDS011;53304;54.550;18.526;2023-04-03T00:02:33;1.98;;;0.52;;
66487;SDS011;53304;54.550;18.526;2023-04-03T00:04:59;2.20;;;0.63;;
66487;SDS011;53304;54.550;18.526;2023-04-03T00:07:26;0.82;;;0.40;;
66487;SDS011;53304;54.550;18.526;2023-04-03T00:09:52;1.77;;;0.55;;
66487;SDS011;53304;54.550;18.526;2023-04-03T00:12:17;1.17;;;0.50;;
66487;SDS011;53304;54.550;18.526;2023-04-03T00:14:43;1.65;;;0.73;;
66487;SDS011;53304;54.550;18.526;2023-04-03T00:17:08;1.42;;;0.50;;
66487;SDS011;53304;54.550;18.526;2023-04-03T00:19:33;1.05;;;0.47;;
66487;SDS011;53304;54.550;18.526;2023-04-03T00:21:59;2.70;;;0.90;;
66487;SDS011;53304;54.550;18.526;2023-04-03T00:24:27;1.75;;;0.73;;
66487;SDS011;53304;54.550;18.526;2023-04-03T00:26:54;2.88;;;0.68;;
66487;SDS011;53304;54.550;18.526;2023-04-03T00:29:21;2.25;;;0.68;;
66487;SDS011;53304;54.550;18.526;2023-04-03T00:31:47;2.55;;;0.80;;
66487;SDS011;53304;54.550;18.526;2023-04-03T00:34:14;2.15;;;0.50;;
66487;SDS011;53304;54.550;18.526;2023-04-03T00:36:42;2.10;;;0.60;;
66487;SDS011;53304;54.550;18.526;2023-04-03T00:39:08;1.40;;;0.43;;
66487;SDS011;53304;54.550;18.526;2023-04-03T00:41:35;1.58;;;0.55;;
66487;SDS011;53304;54.550;18.526;2023-04-03T00:44:16;2.10;;;0.60;;
66487;SDS011;53304;54.550;18.526;2023-04-03T00:47:05;3.05;;;0.50;;
66487;SDS011;53304;54.550;18.526;2023-04-03T00:49:33;1.67;;;0.77;;
66487;SDS011;53304;54.550;18.526;2023-04-03T00:52:03;2.70;;;0.60;;
66487;SDS011;53304;54.550;18.526;2023-04-03T00:54:31;3.15;;;0.60;;
66487;SDS011;53304;54.550;18.526;2023-04-03T00:57:00;1.17;;;0.50;;
66487;SDS011;53304;54.550;18.526;2023-04-03T00:59:27;0.88;;;0.57;;
66487;SDS011;53304;54.550;18.526;2023-04-03T01:02:01;1.48;;;0.50;;
66487;SDS011;53304;54.550;18.526;2023-04-03T01:07:12;1.38;;;0.50;;
66487;SDS011;53304;54.550;18.526;2023-04-03T01:09:40;1.48;;;0.40;;
66487;SDS011;53304;54.550;18.526;2023-04-03T01:14:41;2.00;;;0.50;;
66487;SDS011;53304;54.550;18.526;2023-04-03T01:17:28;2.20;;;0.70;;
66487;SDS011;53304;54.550;18.526;2023-04-03T01:23:04;3.30;;;0.63;;
66487;SDS011;53304;54.550;18.526;2023-04-03T01:25:39;0.65;;;0.30;;
66487;SDS011;53304;54.550;18.526;2023-04-03T01:28:12;1.13;;;0.40;;
66487;SDS011;53304;54.550;18.526;2023-04-03T01:30:45;1.70;;;0.70;;
66487;SDS011;53304;54.550;18.526;2023-04-03T01:33:16;2.38;;;0.60;;
66487;SDS011;53304;54.550;18.526;2023-04-03T01:35:44;2.03;;;0.60;;
66487;SDS011;53304;54.550;18.526;2023-04-03T01:38:10;2.20;;;0.63;;
66487;SDS011;53304;54.550;18.526;2023-04-03T01:40:35;0.52;;;0.50;;
66487;SDS011;53304;54.550;18.526;2023-04-03T01:43:04;2.42;;;0.80;;
66487;SDS011;53304;54.550;18.526;2023-04-03T01:45:32;1.25;;;0.60;;
66487;SDS011;53304;54.550;18.526;2023-04-03T01:47:59;0.95;;;0.60;;
66487;SDS011;53304;54.550;18.526;2023-04-03T01:50:27;1.83;;;0.60;;
66487;SDS011;53304;54.550;18.526;2023-04-03T01:52:55;1.95;;;0.52;;
66487;SDS011;53304;54.550;18.526;2023-04-03T01:55:23;2.58;;;0.65;;
66487;SDS011;53304;54.550;18.526;2023-04-03T01:57:48;1.40;;;0.70;;
66487;SDS011;53304;54.550;18.526;2023-04-03T02:00:14;1.15;;;0.40;;
66487;SDS011;53304;54.550;18.526;2023-04-03T02:02:39;0.73;;;0.50;;
66487;SDS011;53304;54.550;18.526;2023-04-03T02:05:07;2.83;;;0.68;;
66487;SDS011;53304;54.550;18.526;2023-04-03T02:07:35;2.35;;;0.60;;
66487;SDS011;53304;54.550;18.526;2023-04-03T02:10:06;1.33;;;0.60;;
66487;SDS011;53304;54.550;18.526;2023-04-03T02:12:31;2.22;;;0.60;;
66487;SDS011;53304;54.550;18.526;2023-04-03T02:14:57;1.23;;;0.50;;
66487;SDS011;53304;54.550;18.526;2023-04-03T02:17:22;1.25;;;0.63;;
66487;SDS011;53304;54.550;18.526;2023-04-03T02:19:47;0.95;;;0.52;;
66487;SDS011;53304;54.550;18.526;2023-04-03T02:22:13;2.80;;;0.63;;
66487;SDS011;53304;54.550;18.526;2023-04-03T02:24:38;1.27;;;0.47;;
66487;SDS011;53304;54.550;18.526;2023-04-03T02:27:05;1.55;;;0.55;;
66487;SDS011;53304;54.550;18.526;2023-04-03T02:29:30;1.50;;;0.50;;
66487;SDS011;53304;54.550;18.526;2023-04-03T02:31:56;0.70;;;0.50;;
66487;SDS011;53304;54.550;18.526;2023-04-03T02:34:21;2.15;;;0.50;;
66487;SDS011;53304;54.550;18.526;2023-04-03T02:36:49;1.83;;;0.50;;
66487;SDS011;53304;54.550;18.526;2023-04-03T02:39:17;1.17;;;0.55;;
66487;SDS011;53304;54.550;18.526;2023-04-03T02:41:48;0.82;;;0.50;;
66487;SDS011;53304;54.550;18.526;2023-04-03T02:44:13;2.08;;;0.50;;
66487;SDS011;53304;54.550;18.526;2023-04-03T02:46:39;0.70;;;0.40;;
66487;SDS011;53304;54.550;18.526;2023-04-03T02:49:05;1.33;;;0.50;;
66487;SDS011;53304;54.550;18.526;2023-04-03T02:51:30;0.90;;;0.50;;
66487;SDS011;53304;54.550;18.526;2023-04-03T02:53:56;2.00;;;0.50;;
66487;SDS011;53304;54.550;18.526;2023-04-03T02:56:24;1.25;;;0.68;;
66487;SDS011;53304;54.550;18.526;2023-04-03T02:58:49;1.95;;;0.80;;
66487;SDS011;53304;54.550;18.526;2023-04-03T03:01:19;0.93;;;0.45;;
66487;SDS011;53304;54.550;18.526;2023-04-03T03:03:48;0.98;;;0.55;;
66487;SDS011;53304;54.550;18.526;2023-04-03T03:06:14;1.27;;;0.50;;
66487;SDS011;53304;54.550;18.526;2023-04-03T03:08:44;0.65;;;0.40;;
66487;SDS011;53304;54.550;18.526;2023-04-03T03:11:10;0.73;;;0.55;;
66487;SDS011;53304;54.550;18.526;2023-04-03T03:13:38;1.30;;;0.50;;
66487;SDS011;53304;54.550;18.526;2023-04-03T03:16:03;1.45;;;0.50;;
66487;SDS011;53304;54.550;18.526;2023-04-03T03:18:32;0.82;;;0.50;;
66487;SDS011;53304;54.550;18.526;2023-04-03T03:20:58;1.50;;;0.70;;
66487;SDS011;53304;54.550;18.526;2023-04-03T03:23:28;0.55;;;0.50;;
66487;SDS011;53304;54.550;18.526;2023-04-03T03:26:05;1.75;;;0.60;;
66487;SDS011;53304;54.550;18.526;2023-04-03T03:28:34;1.02;;;0.50;;
66487;SDS011;53304;54.550;18.526;2023-04-03T03:31:01;1.88;;;0.60;;
66487;SDS011;53304;54.550;18.526;2023-04-03T03:33:27;1.23;;;0.65;;
66487;SDS011;53304;54.550;18.526;2023-04-03T03:35:52;1.13;;;0.50;;
66487;SDS011;53304;54.550;18.526;2023-04-03T03:38:21;1.95;;;0.60;;
66487;SDS011;53304;54.550;18.526;2023-04-03T03:40:50;0.93;;;0.70;;
66487;SDS011;53304;54.550;18.526;2023-04-03T03:43:16;1.85;;;0.80;;
66487;SDS011;53304;54.550;18.526;2023-04-03T03:45:42;1.05;;;0.60;;
66487;SDS011;53304;54.550;18.526;2023-04-03T03:48:11;1.75;;;0.50;;
66487;SDS011;53304;54.550;18.526;2023-04-03T03:50:36;4.22;;;0.63;;
66487;SDS011;53304;54.550;18.526;2023-04-03T03:53:04;2.92;;;0.50;;
66487;SDS011;53304;54.550;18.526;2023-04-03T03:55:30;1.13;;;0.50;;
66487;SDS011;53304;54.550;18.526;2023-04-03T03:57:57;3.10;;;1.10;;
66487;SDS011;53304;54.550;18.526;2023-04-03T04:00:23;1.50;;;0.70;;
66487;SDS011;53304;54.550;18.526;2023-04-03T04:02:48;1.17;;;0.60;;
66487;SDS011;53304;54.550;18.526;2023-04-03T04:05:16;2.92;;;0.52;;
66487;SDS011;53304;54.550;18.526;2023-04-03T04:07:44;1.27;;;0.50;;
66487;SDS011;53304;54.550;18.526;2023-04-03T04:10:09;1.88;;;0.60;;
66487;SDS011;53304;54.550;18.526;2023-04-03T04:12:35;1.48;;;0.55;;
66487;SDS011;53304;54.550;18.526;2023-04-03T04:15:01;1.80;;;0.55;;
66487;SDS011;53304;54.550;18.526;2023-04-03T04:17:27;1.92;;;0.63;;
66487;SDS011;53304;54.550;18.526;2023-04-03T04:19:52;1.10;;;0.52;;
66487;SDS011;53304;54.550;18.526;2023-04-03T04:22:23;1.42;;;0.57;;
66487;SDS011;53304;54.550;18.526;2023-04-03T04:24:48;2.15;;;0.68;;
66487;SDS011;53304;54.550;18.526;2023-04-03T04:27:16;1.80;;;0.63;;
66487;SDS011;53304;54.550;18.526;2023-04-03T04:29:44;2.90;;;0.45;;
66487;SDS011;53304;54.550;18.526;2023-04-03T04:32:12;1.95;;;0.70;;
66487;SDS011;53304;54.550;18.526;2023-04-03T04:34:39;1.80;;;0.50;;
66487;SDS011;53304;54.550;18.526;2023-04-03T04:37:10;2.42;;;0.82;;
66487;SDS011;53304;54.550;18.526;2023-04-03T04:39:35;0.77;;;0.60;;
66487;SDS011;53304;54.550;18.526;2023-04-03T04:42:01;1.73;;;0.70;;
66487;SDS011;53304;54.550;18.526;2023-04-03T04:44:29;1.33;;;0.60;;
66487;SDS011;53304;54.550;18.526;2023-04-03T04:46:55;1.30;;;0.60;;
66487;SDS011;53304;54.550;18.526;2023-04-03T04:49:20;1.73;;;0.50;;
66487;SDS011;53304;54.550;18.526;2023-04-03T04:51:50;2.85;;;0.85;;
66487;SDS011;53304;54.550;18.526;2023-04-03T04:54:18;0.65;;;0.50;;
66487;SDS011;53304;54.550;18.526;2023-04-03T04:56:43;0.65;;;0.50;;
66487;SDS011;53304;54.550;18.526;2023-04-03T04:59:09;1.48;;;0.60;;
66487;SDS011;53304;54.550;18.526;2023-04-03T05:01:34;1.67;;;0.40;;
66487;SDS011;53304;54.550;18.526;2023-04-03T05:04:00;2.40;;;0.70;;
66487;SDS011;53304;54.550;18.526;2023-04-03T05:06:29;2.25;;;0.50;;
66487;SDS011;53304;54.550;18.526;2023-04-03T05:08:56;2.88;;;0.60;;
66487;SDS011;53304;54.550;18.526;2023-04-03T05:11:27;2.65;;;0.70;;
66487;SDS011;53304;54.550;18.526;2023-04-03T05:13:52;5.55;;;1.10;;
66487;SDS011;53304;54.550;18.526;2023-04-03T05:16:22;1.10;;;0.68;;
66487;SDS011;53304;54.550;18.526;2023-04-03T05:18:47;2.42;;;0.63;;
66487;SDS011;53304;54.550;18.526;2023-04-03T05:21:13;4.40;;;0.80;;
66487;SDS011;53304;54.550;18.526;2023-04-03T05:23:40;2.67;;;0.77;;
66487;SDS011;53304;54.550;18.526;2023-04-03T05:26:06;3.10;;;0.70;;
66487;SDS011;53304;54.550;18.526;2023-04-03T05:28:32;2.97;;;0.95;;
66487;SDS011;53304;54.550;18.526;2023-04-03T05:31:00;3.65;;;0.90;;
66487;SDS011;53304;54.550;18.526;2023-04-03T05:33:28;3.88;;;1.05;;
66487;SDS011;53304;54.550;18.526;2023-04-03T05:35:53;8.40;;;1.27;;
66487;SDS011;53304;54.550;18.526;2023-04-03T05:38:19;6.15;;;1.20;;
66487;SDS011;53304;54.550;18.526;2023-04-03T05:40:47;13.07;;;1.35;;
66487;SDS011;53304;54.550;18.526;2023-04-03T05:43:17;16.65;;;1.75;;
66487;SDS011;53304;54.550;18.526;2023-04-03T05:45:42;12.90;;;1.40;;
66487;SDS011;53304;54.550;18.526;2023-04-03T05:48:11;6.88;;;1.38;;
66487;SDS011;53304;54.550;18.526;2023-04-03T05:50:38;9.25;;;1.20;;
66487;SDS011;53304;54.550;18.526;2023-04-03T05:53:06;5.75;;;1.30;;
66487;SDS011;53304;54.550;18.526;2023-04-03T05:55:35;10.40;;;1.60;;
66487;SDS011;53304;54.550;18.526;2023-04-03T05:58:00;9.73;;;2.00;;
66487;SDS011;53304;54.550;18.526;2023-04-03T06:00:25;9.68;;;1.50;;
66487;SDS011;53304;54.550;18.526;2023-04-03T06:02:52;14.27;;;1.92;;
66487;SDS011;53304;54.550;18.526;2023-04-03T06:05:22;10.38;;;1.55;;
66487;SDS011;53304;54.550;18.526;2023-04-03T06:07:50;9.65;;;1.42;;
66487;SDS011;53304;54.550;18.526;2023-04-03T06:10:16;6.57;;;1.30;;
66487;SDS011;53304;54.550;18.526;2023-04-03T06:12:42;7.47;;;1.48;;
66487;SDS011;53304;54.550;18.526;2023-04-03T06:15:08;10.27;;;2.28;;
66487;SDS011;53304;54.550;18.526;2023-04-03T06:17:37;12.10;;;2.00;;
66487;SDS011;53304;54.550;18.526;2023-04-03T06:20:05;9.15;;;2.20;;
66487;SDS011;53304;54.550;18.526;2023-04-03T06:22:31;9.60;;;1.65;;
66487;SDS011;53304;54.550;18.526;2023-04-03T06:25:01;8.85;;;1.83;;
66487;SDS011;53304;54.550;18.526;2023-04-03T06:27:27;8.65;;;1.67;;
66487;SDS011;53304;54.550;18.526;2023-04-03T06:29:53;8.40;;;1.40;;
66487;SDS011;53304;54.550;18.526;2023-04-03T06:32:23;7.70;;;1.65;;
66487;SDS011;53304;54.550;18.526;2023-04-03T06:34:53;7.60;;;1.48;;
66487;SDS011;53304;54.550;18.526;2023-04-03T06:37:23;7.18;;;1.45;;
66487;SDS011;53304;54.550;18.526;2023-04-03T06:39:53;4.85;;;1.02;;
66487;SDS011;53304;54.550;18.526;2023-04-03T06:42:31;6.95;;;1.40;;
66487;SDS011;53304;54.550;18.526;2023-04-03T06:44:59;5.53;;;1.30;;
66487;SDS011;53304;54.550;18.526;2023-04-03T06:47:28;4.47;;;1.30;;
66487;SDS011;53304;54.550;18.526;2023-04-03T06:49:53;4.18;;;1.30;;
66487;SDS011;53304;54.550;18.526;2023-04-03T06:52:21;3.83;;;1.35;;
66487;SDS011;53304;54.550;18.526;2023-04-03T06:54:46;6.97;;;1.30;;
66487;SDS011;53304;54.550;18.526;2023-04-03T06:57:12;4.57;;;1.15;;
66487;SDS011;53304;54.550;18.526;2023-04-03T06:59:42;4.75;;;1.20;;
66487;SDS011;53304;54.550;18.526;2023-04-03T07:02:09;5.43;;;1.02;;
66487;SDS011;53304;54.550;18.526;2023-04-03T07:04:37;3.22;;;1.42;;
66487;SDS011;53304;54.550;18.526;2023-04-03T07:07:02;5.55;;;1.10;;
66487;SDS011;53304;54.550;18.526;2023-04-03T07:09:30;2.58;;;1.00;;
66487;SDS011;53304;54.550;18.526;2023-04-03T07:11:58;3.83;;;0.93;;
66487;SDS011;53304;54.550;18.526;2023-04-03T07:14:24;3.75;;;1.00;;
66487;SDS011;53304;54.550;18.526;2023-04-03T07:16:52;2.83;;;1.00;;
66487;SDS011;53304;54.550;18.526;2023-04-03T07:19:17;3.22;;;1.00;;
66487;SDS011;53304;54.550;18.526;2023-04-03T07:21:45;3.53;;;1.20;;
66487;SDS011;53304;54.550;18.526;2023-04-03T07:24:11;3.53;;;0.90;;
66487;SDS011;53304;54.550;18.526;2023-04-03T07:26:36;3.22;;;0.88;;
66487;SDS011;53304;54.550;18.526;2023-04-03T07:29:02;3.08;;;0.90;;
66487;SDS011;53304;54.550;18.526;2023-04-03T07:31:30;3.70;;;1.10;;
66487;SDS011;53304;54.550;18.526;2023-04-03T07:33:58;2.67;;;0.90;;
66487;SDS011;53304;54.550;18.526;2023-04-03T07:36:26;2.75;;;0.80;;
66487;SDS011;53304;54.550;18.526;2023-04-03T07:38:52;3.08;;;1.00;;
66487;SDS011;53304;54.550;18.526;2023-04-03T07:41:18;1.92;;;0.80;;
66487;SDS011;53304;54.550;18.526;2023-04-03T07:43:47;3.13;;;0.80;;
66487;SDS011;53304;54.550;18.526;2023-04-03T07:46:15;3.42;;;0.90;;
66487;SDS011;53304;54.550;18.526;2023-04-03T07:48:40;4.00;;;0.90;;
66487;SDS011;53304;54.550;18.526;2023-04-03T07:51:06;1.85;;;0.73;;
66487;SDS011;53304;54.550;18.526;2023-04-03T07:53:31;2.92;;;0.93;;
66487;SDS011;53304;54.550;18.526;2023-04-03T07:56:00;2.33;;;0.70;;
66487;SDS011;53304;54.550;18.526;2023-04-03T07:58:27;1.30;;;0.80;;
66487;SDS011;53304;54.550;18.526;2023-04-03T08:00:57;2.50;;;0.80;;
66487;SDS011;53304;54.550;18.526;2023-04-03T08:03:23;2.40;;;0.88;;
66487;SDS011;53304;54.550;18.526;2023-04-03T08:05:48;0.93;;;0.70;;
66487;SDS011;53304;54.550;18.526;2023-04-03T08:08:16;1.45;;;0.85;;
66487;SDS011;53304;54.550;18.526;2023-04-03T08:10:46;1.38;;;0.80;;
66487;SDS011;53304;54.550;18.526;2023-04-03T08:13:13;3.22;;;0.75;;
66487;SDS011;53304;54.550;18.526;2023-04-03T08:15:39;2.00;;;0.70;;
66487;SDS011;53304;54.550;18.526;2023-04-03T08:18:04;3.20;;;0.95;;
66487;SDS011;53304;54.550;18.526;2023-04-03T08:20:32;1.33;;;0.80;;
66487;SDS011;53304;54.550;18.526;2023-04-03T08:23:00;1.77;;;0.70;;
66487;SDS011;53304;54.550;18.526;2023-04-03T08:25:30;1.27;;;0.68;;
66487;SDS011;53304;54.550;18.526;2023-04-03T08:27:58;3.10;;;0.80;;
66487;SDS011;53304;54.550;18.526;2023-04-03T08:30:23;3.28;;;0.85;;
66487;SDS011;53304;54.550;18.526;2023-04-03T08:32:51;1.88;;;0.73;;
66487;SDS011;53304;54.550;18.526;2023-04-03T08:35:16;2.92;;;0.75;;
66487;SDS011;53304;54.550;18.526;2023-04-03T08:37:44;1.10;;;0.70;;
66487;SDS011;53304;54.550;18.526;2023-04-03T08:40:14;2.67;;;0.80;;
66487;SDS011;53304;54.550;18.526;2023-04-03T08:45:10;6.85;;;1.20;;
66487;SDS011;53304;54.550;18.526;2023-04-03T08:47:49;4.20;;;1.27;;
66487;SDS011;53304;54.550;18.526;2023-04-03T08:50:21;5.32;;;1.00;;
66487;SDS011;53304;54.550;18.526;2023-04-03T08:52:58;14.00;;;1.63;;
66487;SDS011;53304;54.550;18.526;2023-04-03T08:55:33;5.18;;;1.13;;
66487;SDS011;53304;54.550;18.526;2023-04-03T08:58:09;5.40;;;0.97;;
66487;SDS011;53304;54.550;18.526;2023-04-03T09:03:52;4.53;;;1.10;;
66487;SDS011;53304;54.550;18.526;2023-04-03T09:06:21;4.03;;;0.80;;
66487;SDS011;53304;54.550;18.526;2023-04-03T09:11:57;2.42;;;0.82;;
66487;SDS011;53304;54.550;18.526;2023-04-03T09:17:39;3.88;;;1.20;;
66487;SDS011;53304;54.550;18.526;2023-04-03T09:22:57;5.55;;;1.38;;
66487;SDS011;53304;54.550;18.526;2023-04-03T09:25:27;7.60;;;1.10;;
66487;SDS011;53304;54.550;18.526;2023-04-03T09:28:00;3.17;;;1.27;;
66487;SDS011;53304;54.550;18.526;2023-04-03T09:30:26;1.60;;;0.90;;
66487;SDS011;53304;54.550;18.526;2023-04-03T09:32:56;4.63;;;1.00;;
66487;SDS011;53304;54.550;18.526;2023-04-03T09:35:29;2.38;;;0.90;;
66487;SDS011;53304;54.550;18.526;2023-04-03T09:40:49;1.80;;;0.85;;
66487;SDS011;53304;54.550;18.526;2023-04-03T09:43:21;2.53;;;0.90;;
66487;SDS011;53304;54.550;18.526;2023-04-03T09:45:47;6.32;;;1.15;;
66487;SDS011;53304;54.550;18.526;2023-04-03T09:51:03;9.18;;;1.23;;
66487;SDS011;53304;54.550;18.526;2023-04-03T09:53:36;3.85;;;1.20;;
66487;SDS011;53304;54.550;18.526;2023-04-03T09:58:40;3.38;;;0.90;;
66487;SDS011;53304;54.550;18.526;2023-04-03T10:01:28;3.13;;;1.00;;
66487;SDS011;53304;54.550;18.526;2023-04-03T10:06:33;2.72;;;0.90;;
66487;SDS011;53304;54.550;18.526;2023-04-03T10:09:15;2.05;;;0.93;;
66487;SDS011;53304;54.550;18.526;2023-04-03T10:14:40;1.73;;;0.85;;
66487;SDS011;53304;54.550;18.526;2023-04-03T10:26:17;1.45;;;0.70;;
66487;SDS011;53304;54.550;18.526;2023-04-03T10:34:29;2.22;;;0.80;;
66487;SDS011;53304;54.550;18.526;2023-04-03T10:40:15;1.27;;;0.82;;
66487;SDS011;53304;54.550;18.526;2023-04-03T10:51:37;4.60;;;1.00;;
66487;SDS011;53304;54.550;18.526;2023-04-03T11:04:50;1.92;;;0.90;;
66487;SDS011;53304;54.550;18.526;2023-04-03T11:07:29;1.42;;;0.70;;
66487;SDS011;53304;54.550;18.526;2023-04-03T11:13:22;1.90;;;0.95;;
66487;SDS011;53304;54.550;18.526;2023-04-03T11:15:54;3.30;;;0.98;;
66487;SDS011;53304;54.550;18.526;2023-04-03T11:18:31;1.90;;;0.98;;
66487;SDS011;53304;54.550;18.526;2023-04-03T11:21:20;1.65;;;0.80;;
66487;SDS011;53304;54.550;18.526;2023-04-03T11:23:49;1.30;;;0.70;;
66487;SDS011;53304;54.550;18.526;2023-04-03T11:26:17;2.20;;;0.93;;
66487;SDS011;53304;54.550;18.526;2023-04-03T11:28:48;2.33;;;0.88;;
66487;SDS011;53304;54.550;18.526;2023-04-03T11:36:59;1.80;;;0.80;;
66487;SDS011;53304;54.550;18.526;2023-04-03T11:42:12;2.05;;;1.00;;
66487;SDS011;53304;54.550;18.526;2023-04-03T11:44:38;2.47;;;0.80;;
66487;SDS011;53304;54.550;18.526;2023-04-03T11:47:07;2.58;;;0.70;;
66487;SDS011;53304;54.550;18.526;2023-04-03T11:52:39;2.53;;;0.80;;
66487;SDS011;53304;54.550;18.526;2023-04-03T12:13:41;1.98;;;0.80;;
66487;SDS011;53304;54.550;18.526;2023-04-03T12:24:00;3.80;;;0.90;;
66487;SDS011;53304;54.550;18.526;2023-04-03T12:26:32;1.15;;;0.70;;
66487;SDS011;53304;54.550;18.526;2023-04-03T12:34:54;1.45;;;0.60;;
66487;SDS011;53304;54.550;18.526;2023-04-03T12:43:12;2.05;;;0.80;;
66487;SDS011;53304;54.550;18.526;2023-04-03T12:45:59;1.35;;;0.75;;
66487;SDS011;53304;54.550;18.526;2023-04-03T12:48:31;1.45;;;0.77;;
66487;SDS011;53304;54.550;18.526;2023-04-03T12:50:59;1.23;;;0.68;;
66487;SDS011;53304;54.550;18.526;2023-04-03T12:53:28;0.93;;;0.80;;
66487;SDS011;53304;54.550;18.526;2023-04-03T12:56:19;2.65;;;0.88;;
66487;SDS011;53304;54.550;18.526;2023-04-03T12:58:54;2.72;;;0.70;;
66487;SDS011;53304;54.550;18.526;2023-04-03T13:01:23;1.45;;;0.70;;
66487;SDS011;53304;54.550;18.526;2023-04-03T13:03:52;2.22;;;0.75;;
66487;SDS011;53304;54.550;18.526;2023-04-03T13:06:22;2.05;;;0.75;;
66487;SDS011;53304;54.550;18.526;2023-04-03T13:08:54;1.27;;;0.80;;
66487;SDS011;53304;54.550;18.526;2023-04-03T13:11:25;2.40;;;0.80;;
66487;SDS011;53304;54.550;18.526;2023-04-03T13:13:58;2.05;;;0.80;;
66487;SDS011;53304;54.550;18.526;2023-04-03T13:16:27;3.00;;;0.80;;
66487;SDS011;53304;54.550;18.526;2023-04-03T13:18:53;1.95;;;0.80;;
66487;SDS011;53304;54.550;18.526;2023-04-03T13:21:20;0.95;;;0.82;;
66487;SDS011;53304;54.550;18.526;2023-04-03T13:23:51;1.92;;;0.80;;
66487;SDS011;53304;54.550;18.526;2023-04-03T13:26:18;3.35;;;1.15;;
66487;SDS011;53304;54.550;18.526;2023-04-03T13:28:44;1.23;;;0.68;;
66487;SDS011;53304;54.550;18.526;2023-04-03T13:33:43;2.00;;;0.60;;
66487;SDS011;53304;54.550;18.526;2023-04-03T13:36:18;2.28;;;0.80;;
66487;SDS011;53304;54.550;18.526;2023-04-03T13:38:45;1.83;;;0.85;;
66487;SDS011;53304;54.550;18.526;2023-04-03T13:41:31;1.40;;;0.65;;
66487;SDS011;53304;54.550;18.526;2023-04-03T13:46:52;2.00;;;0.85;;
66487;SDS011;53304;54.550;18.526;2023-04-03T13:51:51;3.65;;;1.00;;
66487;SDS011;53304;54.550;18.526;2023-04-03T13:54:23;2.67;;;1.00;;
66487;SDS011;53304;54.550;18.526;2023-04-03T13:56:57;4.35;;;0.98;;
66487;SDS011;53304;54.550;18.526;2023-04-03T13:59:27;2.55;;;0.95;;
66487;SDS011;53304;54.550;18.526;2023-04-03T14:04:29;3.88;;;1.10;;
66487;SDS011;53304;54.550;18.526;2023-04-03T14:07:13;1.85;;;1.00;;
66487;SDS011;53304;54.550;18.526;2023-04-03T14:09:43;2.25;;;1.00;;
66487;SDS011;53304;54.550;18.526;2023-04-03T14:12:13;3.78;;;1.30;;
66487;SDS011;53304;54.550;18.526;2023-04-03T14:14:45;3.03;;;0.90;;
66487;SDS011;53304;54.550;18.526;2023-04-03T14:17:15;3.05;;;1.20;;
66487;SDS011;53304;54.550;18.526;2023-04-03T14:19:47;1.80;;;1.05;;
66487;SDS011;53304;54.550;18.526;2023-04-03T14:22:24;2.60;;;0.90;;
66487;SDS011;53304;54.550;18.526;2023-04-03T14:24:51;3.38;;;1.17;;
66487;SDS011;53304;54.550;18.526;2023-04-03T14:27:19;3.40;;;1.00;;
66487;SDS011;53304;54.550;18.526;2023-04-03T14:29:46;3.03;;;1.17;;
66487;SDS011;53304;54.550;18.526;2023-04-03T14:32:14;2.03;;;1.05;;
66487;SDS011;53304;54.550;18.526;2023-04-03T14:34:43;3.67;;;1.00;;
66487;SDS011;53304;54.550;18.526;2023-04-03T14:37:18;2.17;;;0.95;;
66487;SDS011;53304;54.550;18.526;2023-04-03T14:39:51;2.13;;;1.00;;
66487;SDS011;53304;54.550;18.526;2023-04-03T14:42:22;1.55;;;0.85;;
66487;SDS011;53304;54.550;18.526;2023-04-03T14:44:51;3.80;;;1.20;;
66487;SDS011;53304;54.550;18.526;2023-04-03T14:47:21;3.25;;;1.20;;
66487;SDS011;53304;54.550;18.526;2023-04-03T14:49:49;4.43;;;1.10;;
66487;SDS011;53304;54.550;18.526;2023-04-03T14:52:22;3.00;;;0.88;;
66487;SDS011;53304;54.550;18.526;2023-04-03T14:54:55;2.53;;;1.02;;
66487;SDS011;53304;54.550;18.526;2023-04-03T14:57:24;3.38;;;1.00;;
66487;SDS011;53304;54.550;18.526;2023-04-03T14:59:51;2.33;;;1.00;;
66487;SDS011;53304;54.550;18.526;2023-04-03T15:04:51;1.45;;;0.82;;
66487;SDS011;53304;54.550;18.526;2023-04-03T15:07:17;1.45;;;0.80;;
66487;SDS011;53304;54.550;18.526;2023-04-03T15:09:43;2.10;;;0.98;;
66487;SDS011;53304;54.550;18.526;2023-04-03T15:12:08;1.67;;;1.00;;
66487;SDS011;53304;54.550;18.526;2023-04-03T15:14:35;2.45;;;1.00;;
66487;SDS011;53304;54.550;18.526;2023-04-03T15:17:03;1.75;;;0.88;;
66487;SDS011;53304;54.550;18.526;2023-04-03T15:19:31;1.73;;;0.95;;
66487;SDS011;53304;54.550;18.526;2023-04-03T15:22:04;2.05;;;1.00;;
66487;SDS011;53304;54.550;18.526;2023-04-03T15:24:32;2.30;;;0.93;;
66487;SDS011;53304;54.550;18.526;2023-04-03T15:27:02;1.38;;;0.80;;
66487;SDS011;53304;54.550;18.526;2023-04-03T15:29:30;1.58;;;0.80;;
66487;SDS011;53304;54.550;18.526;2023-04-03T15:31:56;1.52;;;0.73;;
66487;SDS011;53304;54.550;18.526;2023-04-03T15:34:23;1.80;;;1.00;;
66487;SDS011;53304;54.550;18.526;2023-04-03T15:36:49;2.05;;;0.90;;
66487;SDS011;53304;54.550;18.526;2023-04-03T15:39:19;1.27;;;0.70;;
66487;SDS011;53304;54.550;18.526;2023-04-03T15:41:45;2.88;;;1.00;;
66487;SDS011;53304;54.550;18.526;2023-04-03T15:44:14;1.23;;;0.90;;
66487;SDS011;53304;54.550;18.526;2023-04-03T15:46:44;2.08;;;0.80;;
66487;SDS011;53304;54.550;18.526;2023-04-03T15:49:11;2.17;;;0.80;;
66487;SDS011;53304;54.550;18.526;2023-04-03T15:51:39;2.53;;;0.90;;
66487;SDS011;53304;54.550;18.526;2023-04-03T15:54:09;2.45;;;0.80;;
66487;SDS011;53304;54.550;18.526;2023-04-03T15:56:35;2.33;;;0.90;;
66487;SDS011;53304;54.550;18.526;2023-04-03T15:59:00;2.40;;;0.90;;
66487;SDS011;53304;54.550;18.526;2023-04-03T16:01:26;1.30;;;0.90;;
66487;SDS011;53304;54.550;18.526;2023-04-03T16:03:54;1.67;;;0.80;;
66487;SDS011;53304;54.550;18.526;2023-04-03T16:06:20;1.60;;;0.77;;
66487;SDS011;53304;54.550;18.526;2023-04-03T16:08:46;1.65;;;1.05;;
66487;SDS011;53304;54.550;18.526;2023-04-03T16:11:14;2.53;;;0.80;;
66487;SDS011;53304;54.550;18.526;2023-04-03T16:13:50;2.35;;;1.00;;
66487;SDS011;53304;54.550;18.526;2023-04-03T16:16:18;3.05;;;1.00;;
66487;SDS011;53304;54.550;18.526;2023-04-03T16:18:46;3.15;;;1.00;;
66487;SDS011;53304;54.550;18.526;2023-04-03T16:21:13;2.30;;;0.82;;
66487;SDS011;53304;54.550;18.526;2023-04-03T16:23:40;5.20;;;1.30;;
66487;SDS011;53304;54.550;18.526;2023-04-03T16:26:09;14.52;;;1.88;;
66487;SDS011;53304;54.550;18.526;2023-04-03T16:28:34;3.28;;;1.00;;
66487;SDS011;53304;54.550;18.526;2023-04-03T16:31:00;3.22;;;1.00;;
66487;SDS011;53304;54.550;18.526;2023-04-03T16:33:26;4.32;;;1.10;;
66487;SDS011;53304;54.550;18.526;2023-04-03T16:35:55;3.30;;;0.90;;
66487;SDS011;53304;54.550;18.526;2023-04-03T16:38:20;1.90;;;1.00;;
66487;SDS011;53304;54.550;18.526;2023-04-03T16:40:47;2.67;;;1.17;;
66487;SDS011;53304;54.550;18.526;2023-04-03T16:43:15;2.80;;;0.90;;
66487;SDS011;53304;54.550;18.526;2023-04-03T16:45:43;2.00;;;0.82;;
66487;SDS011;53304;54.550;18.526;2023-04-03T16:48:08;2.28;;;0.95;;
66487;SDS011;53304;54.550;18.526;2023-04-03T16:50:38;2.97;;;0.73;;
66487;SDS011;53304;54.550;18.526;2023-04-03T16:53:06;2.10;;;0.90;;
66487;SDS011;53304;54.550;18.526;2023-04-03T16:55:37;2.10;;;0.77;;
66487;SDS011;53304;54.550;18.526;2023-04-03T16:58:04;2.60;;;0.90;;
66487;SDS011;53304;54.550;18.526;2023-04-03T17:00:30;2.33;;;0.82;;